sensor_id;sensor_type;location;lat;lon;timestamp;P1;durP1;ratioP1;P2;durP2;ratioP2
3293;SDS011;1659;51.470;6.770;2023-09-12T00:01:57;25.80;;;19.37;;
3293;SDS011;1659;51.470;6.770;2023-09-12T00:04:24;33.07;;;19.03;;
3293;SDS011;1659;51.470;6.770;2023-09-12T00:06:50;29.90;;;20.10;;
3293;SDS011;1659;51.470;6.770;2023-09-12T00:09:17;28.27;;;18.97;;
3293;SDS011;1659;51.470;6.770;2023-09-12T00:11:43;29.10;;;18.93;;
3293;SDS011;1659;51.470;6.770;2023-09-12T00:14:10;32.70;;;19.23;;
3293;SDS011;1659;51.470;6.770;2023-09-12T00:16:42;32.67;;;20.57;;
3293;SDS011;1659;51.470;6.770;2023-09-12T00:19:09;31.60;;;20.47;;
3293;SDS011;1659;51.470;6.770;2023-09-12T00:21:35;36.33;;;22.00;;
3293;SDS011;1659;51.470;6.770;2023-09-12T00:24:02;33.10;;;19.63;;
3293;SDS011;1659;51.470;6.770;2023-09-12T00:26:29;33.37;;;21.50;;
3293;SDS011;1659;51.470;6.770;2023-09-12T00:28:56;33.17;;;20.60;;
3293;SDS011;1659;51.470;6.770;2023-09-12T00:31:22;29.53;;;19.30;;
3293;SDS011;1659;51.470;6.770;2023-09-12T00:33:50;41.03;;;22.60;;
3293;SDS011;1659;51.470;6.770;2023-09-12T00:36:17;48.70;;;23.90;;
3293;SDS011;1659;51.470;6.770;2023-09-12T00:38:43;44.07;;;23.60;;
3293;SDS011;1659;51.470;6.770;2023-09-12T00:41:10;42.50;;;24.90;;
3293;SDS011;1659;51.470;6.770;2023-09-12T00:43:36;46.80;;;25.27;;
3293;SDS011;1659;51.470;6.770;2023-09-12T00:46:03;47.07;;;23.50;;
3293;SDS011;1659;51.470;6.770;2023-09-12T00:48:29;39.67;;;23.43;;
3293;SDS011;1659;51.470;6.770;2023-09-12T00:50:58;40.37;;;23.30;;
3293;SDS011;1659;51.470;6.770;2023-09-12T00:53:25;36.37;;;21.70;;
3293;SDS011;1659;51.470;6.770;2023-09-12T00:55:54;35.67;;;21.77;;
3293;SDS011;1659;51.470;6.770;2023-09-12T00:58:23;40.20;;;22.40;;
3293;SDS011;1659;51.470;6.770;2023-09-12T01:00:50;36.30;;;22.20;;
3293;SDS011;1659;51.470;6.770;2023-09-12T01:03:17;42.23;;;22.63;;
3293;SDS011;1659;51.470;6.770;2023-09-12T01:05:44;36.43;;;20.90;;
3293;SDS011;1659;51.470;6.770;2023-09-12T01:08:13;40.13;;;22.90;;
3293;SDS011;1659;51.470;6.770;2023-09-12T01:10:40;34.00;;;22.17;;
3293;SDS011;1659;51.470;6.770;2023-09-12T01:13:11;40.93;;;21.30;;
3293;SDS011;1659;51.470;6.770;2023-09-12T01:15:38;36.70;;;22.50;;
3293;SDS011;1659;51.470;6.770;2023-09-12T01:18:04;43.33;;;24.03;;
3293;SDS011;1659;51.470;6.770;2023-09-12T01:20:32;38.80;;;22.53;;
3293;SDS011;1659;51.470;6.770;2023-09-12T01:23:08;38.43;;;22.93;;
3293;SDS011;1659;51.470;6.770;2023-09-12T01:28:48;34.57;;;21.33;;
3293;SDS011;1659;51.470;6.770;2023-09-12T01:31:17;30.93;;;19.90;;
3293;SDS011;1659;51.470;6.770;2023-09-12T01:33:44;37.87;;;22.60;;
3293;SDS011;1659;51.470;6.770;2023-09-12T01:36:11;34.77;;;20.63;;
3293;SDS011;1659;51.470;6.770;2023-09-12T01:38:37;33.23;;;20.93;;
3293;SDS011;1659;51.470;6.770;2023-09-12T01:41:04;32.57;;;19.77;;
3293;SDS011;1659;51.470;6.770;2023-09-12T01:43:32;36.20;;;20.40;;
3293;SDS011;1659;51.470;6.770;2023-09-12T01:46:02;39.00;;;22.20;;
3293;SDS011;1659;51.470;6.770;2023-09-12T01:48:31;32.20;;;19.80;;
3293;SDS011;1659;51.470;6.770;2023-09-12T01:51:00;35.13;;;22.47;;
3293;SDS011;1659;51.470;6.770;2023-09-12T01:53:27;32.07;;;22.63;;
3293;SDS011;1659;51.470;6.770;2023-09-12T01:55:54;34.33;;;20.40;;
3293;SDS011;1659;51.470;6.770;2023-09-12T01:58:23;34.67;;;20.30;;
3293;SDS011;1659;51.470;6.770;2023-09-12T02:00:51;35.53;;;20.43;;
3293;SDS011;1659;51.470;6.770;2023-09-12T02:03:19;30.30;;;21.20;;
3293;SDS011;1659;51.470;6.770;2023-09-12T02:05:46;35.10;;;19.80;;
3293;SDS011;1659;51.470;6.770;2023-09-12T02:08:13;34.67;;;20.23;;
3293;SDS011;1659;51.470;6.770;2023-09-12T02:10:39;31.87;;;19.53;;
3293;SDS011;1659;51.470;6.770;2023-09-12T02:13:06;33.03;;;20.50;;
3293;SDS011;1659;51.470;6.770;2023-09-12T02:15:32;35.60;;;20.90;;
3293;SDS011;1659;51.470;6.770;2023-09-12T02:17:59;35.70;;;21.17;;
3293;SDS011;1659;51.470;6.770;2023-09-12T02:20:27;34.50;;;20.97;;
3293;SDS011;1659;51.470;6.770;2023-09-12T02:22:53;34.50;;;21.13;;
3293;SDS011;1659;51.470;6.770;2023-09-12T02:25:20;33.73;;;21.80;;
3293;SDS011;1659;51.470;6.770;2023-09-12T02:27:46;29.70;;;20.30;;
3293;SDS011;1659;51.470;6.770;2023-09-12T02:30:13;33.97;;;21.27;;
3293;SDS011;1659;51.470;6.770;2023-09-12T02:32:41;33.70;;;20.90;;
3293;SDS011;1659;51.470;6.770;2023-09-12T02:35:08;35.03;;;22.00;;
3293;SDS011;1659;51.470;6.770;2023-09-12T02:37:35;36.50;;;21.37;;
3293;SDS011;1659;51.470;6.770;2023-09-12T02:40:02;34.27;;;21.80;;
3293;SDS011;1659;51.470;6.770;2023-09-12T02:42:30;33.03;;;21.60;;
3293;SDS011;1659;51.470;6.770;2023-09-12T02:44:57;34.90;;;21.67;;
3293;SDS011;1659;51.470;6.770;2023-09-12T02:47:23;34.23;;;22.50;;
3293;SDS011;1659;51.470;6.770;2023-09-12T02:49:50;38.20;;;21.93;;
3293;SDS011;1659;51.470;6.770;2023-09-12T02:52:16;38.93;;;22.53;;
3293;SDS011;1659;51.470;6.770;2023-09-12T02:54:44;41.00;;;23.97;;
3293;SDS011;1659;51.470;6.770;2023-09-12T02:57:11;38.43;;;24.20;;
3293;SDS011;1659;51.470;6.770;2023-09-12T02:59:37;39.30;;;23.40;;
3293;SDS011;1659;51.470;6.770;2023-09-12T03:02:04;42.37;;;24.97;;
3293;SDS011;1659;51.470;6.770;2023-09-12T03:04:30;35.93;;;23.43;;
3293;SDS011;1659;51.470;6.770;2023-09-12T03:06:57;38.17;;;24.30;;
3293;SDS011;1659;51.470;6.770;2023-09-12T03:09:23;49.40;;;25.30;;
3293;SDS011;1659;51.470;6.770;2023-09-12T03:11:51;42.27;;;24.73;;
3293;SDS011;1659;51.470;6.770;2023-09-12T03:14:18;45.03;;;25.20;;
3293;SDS011;1659;51.470;6.770;2023-09-12T03:16:44;47.50;;;26.30;;
3293;SDS011;1659;51.470;6.770;2023-09-12T03:19:11;48.07;;;27.40;;
3293;SDS011;1659;51.470;6.770;2023-09-12T03:21:37;41.83;;;26.03;;
3293;SDS011;1659;51.470;6.770;2023-09-12T03:24:05;52.10;;;29.27;;
3293;SDS011;1659;51.470;6.770;2023-09-12T03:26:33;46.93;;;27.50;;
3293;SDS011;1659;51.470;6.770;2023-09-12T03:29:01;42.53;;;26.00;;
3293;SDS011;1659;51.470;6.770;2023-09-12T03:31:28;50.23;;;28.57;;
3293;SDS011;1659;51.470;6.770;2023-09-12T03:33:54;62.90;;;32.33;;
3293;SDS011;1659;51.470;6.770;2023-09-12T03:36:21;56.87;;;30.47;;
3293;SDS011;1659;51.470;6.770;2023-09-12T03:38:48;50.87;;;30.50;;
3293;SDS011;1659;51.470;6.770;2023-09-12T03:41:14;53.70;;;30.90;;
3293;SDS011;1659;51.470;6.770;2023-09-12T03:43:41;49.13;;;29.80;;
3293;SDS011;1659;51.470;6.770;2023-09-12T03:46:09;57.70;;;29.70;;
3293;SDS011;1659;51.470;6.770;2023-09-12T03:48:35;54.50;;;31.43;;
3293;SDS011;1659;51.470;6.770;2023-09-12T03:51:02;59.07;;;33.63;;
3293;SDS011;1659;51.470;6.770;2023-09-12T03:53:29;56.73;;;31.57;;
3293;SDS011;1659;51.470;6.770;2023-09-12T03:55:57;65.70;;;35.80;;
3293;SDS011;1659;51.470;6.770;2023-09-12T03:58:24;71.90;;;37.60;;
3293;SDS011;1659;51.470;6.770;2023-09-12T04:00:50;64.70;;;36.60;;
3293;SDS011;1659;51.470;6.770;2023-09-12T04:03:18;78.27;;;36.70;;
3293;SDS011;1659;51.470;6.770;2023-09-12T04:05:45;83.03;;;42.60;;
3293;SDS011;1659;51.470;6.770;2023-09-12T04:08:12;92.23;;;49.87;;
3293;SDS011;1659;51.470;6.770;2023-09-12T04:10:39;78.17;;;43.70;;
3293;SDS011;1659;51.470;6.770;2023-09-12T04:13:06;79.27;;;42.07;;
3293;SDS011;1659;51.470;6.770;2023-09-12T04:15:32;75.53;;;40.83;;
3293;SDS011;1659;51.470;6.770;2023-09-12T04:17:59;74.67;;;38.33;;
3293;SDS011;1659;51.470;6.770;2023-09-12T04:20:27;109.13;;;51.37;;
3293;SDS011;1659;51.470;6.770;2023-09-12T04:22:54;87.33;;;46.97;;
3293;SDS011;1659;51.470;6.770;2023-09-12T04:25:20;75.87;;;40.70;;
3293;SDS011;1659;51.470;6.770;2023-09-12T04:27:47;89.20;;;43.90;;
3293;SDS011;1659;51.470;6.770;2023-09-12T04:30:13;81.57;;;43.40;;
3293;SDS011;1659;51.470;6.770;2023-09-12T04:32:40;86.47;;;43.87;;
3293;SDS011;1659;51.470;6.770;2023-09-12T04:35:06;80.20;;;40.20;;
3293;SDS011;1659;51.470;6.770;2023-09-12T04:37:34;70.30;;;40.80;;
3293;SDS011;1659;51.470;6.770;2023-09-12T04:40:02;84.90;;;44.50;;
3293;SDS011;1659;51.470;6.770;2023-09-12T04:42:31;75.27;;;38.80;;
3293;SDS011;1659;51.470;6.770;2023-09-12T04:44:57;76.77;;;41.80;;
3293;SDS011;1659;51.470;6.770;2023-09-12T04:47:24;82.83;;;43.17;;
3293;SDS011;1659;51.470;6.770;2023-09-12T04:49:50;98.17;;;50.37;;
3293;SDS011;1659;51.470;6.770;2023-09-12T04:52:18;81.07;;;41.47;;
3293;SDS011;1659;51.470;6.770;2023-09-12T04:54:46;85.50;;;47.17;;
3293;SDS011;1659;51.470;6.770;2023-09-12T04:57:12;73.20;;;43.60;;
3293;SDS011;1659;51.470;6.770;2023-09-12T04:59:39;88.10;;;43.50;;
3293;SDS011;1659;51.470;6.770;2023-09-12T05:02:05;93.73;;;46.53;;
3293;SDS011;1659;51.470;6.770;2023-09-12T05:04:32;73.03;;;40.83;;
3293;SDS011;1659;51.470;6.770;2023-09-12T05:06:58;73.80;;;40.33;;
3293;SDS011;1659;51.470;6.770;2023-09-12T05:09:25;71.03;;;39.47;;
3293;SDS011;1659;51.470;6.770;2023-09-12T05:11:53;74.77;;;42.90;;
3293;SDS011;1659;51.470;6.770;2023-09-12T05:14:19;77.30;;;40.20;;
3293;SDS011;1659;51.470;6.770;2023-09-12T05:16:46;72.37;;;41.03;;
3293;SDS011;1659;51.470;6.770;2023-09-12T05:19:12;77.87;;;40.17;;
3293;SDS011;1659;51.470;6.770;2023-09-12T05:21:39;77.00;;;40.60;;
3293;SDS011;1659;51.470;6.770;2023-09-12T05:24:05;85.07;;;41.80;;
3293;SDS011;1659;51.470;6.770;2023-09-12T05:26:32;80.83;;;41.87;;
3293;SDS011;1659;51.470;6.770;2023-09-12T05:29:00;81.10;;;43.80;;
3293;SDS011;1659;51.470;6.770;2023-09-12T05:31:27;82.33;;;42.10;;
3293;SDS011;1659;51.470;6.770;2023-09-12T05:33:53;87.00;;;44.07;;
3293;SDS011;1659;51.470;6.770;2023-09-12T05:36:20;74.47;;;42.43;;
3293;SDS011;1659;51.470;6.770;2023-09-12T05:38:46;97.43;;;46.73;;
3293;SDS011;1659;51.470;6.770;2023-09-12T05:41:13;77.90;;;37.70;;
3293;SDS011;1659;51.470;6.770;2023-09-12T05:43:39;77.33;;;41.63;;
3293;SDS011;1659;51.470;6.770;2023-09-12T05:46:07;83.03;;;42.37;;
3293;SDS011;1659;51.470;6.770;2023-09-12T05:48:34;79.83;;;40.70;;
3293;SDS011;1659;51.470;6.770;2023-09-12T05:51:01;82.23;;;41.83;;
3293;SDS011;1659;51.470;6.770;2023-09-12T05:53:28;82.10;;;40.43;;
3293;SDS011;1659;51.470;6.770;2023-09-12T05:55:55;77.37;;;39.50;;
3293;SDS011;1659;51.470;6.770;2023-09-12T05:58:22;70.40;;;40.80;;
3293;SDS011;1659;51.470;6.770;2023-09-12T06:00:48;78.13;;;41.30;;
3293;SDS011;1659;51.470;6.770;2023-09-12T06:03:17;73.77;;;40.30;;
3293;SDS011;1659;51.470;6.770;2023-09-12T06:05:43;73.57;;;39.53;;
3293;SDS011;1659;51.470;6.770;2023-09-12T06:08:10;81.53;;;39.63;;
3293;SDS011;1659;51.470;6.770;2023-09-12T06:10:36;74.67;;;39.57;;
3293;SDS011;1659;51.470;6.770;2023-09-12T06:13:03;72.30;;;38.50;;
3293;SDS011;1659;51.470;6.770;2023-09-12T06:15:29;59.23;;;32.23;;
3293;SDS011;1659;51.470;6.770;2023-09-12T06:17:56;46.73;;;28.13;;
3293;SDS011;1659;51.470;6.770;2023-09-12T06:20:24;55.73;;;30.53;;
3293;SDS011;1659;51.470;6.770;2023-09-12T06:22:51;63.27;;;31.47;;
3293;SDS011;1659;51.470;6.770;2023-09-12T06:25:17;56.17;;;29.43;;
3293;SDS011;1659;51.470;6.770;2023-09-12T06:27:44;53.77;;;27.90;;
3293;SDS011;1659;51.470;6.770;2023-09-12T06:30:11;59.20;;;30.50;;
3293;SDS011;1659;51.470;6.770;2023-09-12T06:32:38;49.47;;;27.93;;
3293;SDS011;1659;51.470;6.770;2023-09-12T06:35:05;53.10;;;28.43;;
3293;SDS011;1659;51.470;6.770;2023-09-12T06:37:36;41.53;;;27.17;;
3293;SDS011;1659;51.470;6.770;2023-09-12T06:40:03;48.33;;;26.50;;
3293;SDS011;1659;51.470;6.770;2023-09-12T06:42:31;50.27;;;28.40;;
3293;SDS011;1659;51.470;6.770;2023-09-12T06:44:57;43.33;;;26.47;;
3293;SDS011;1659;51.470;6.770;2023-09-12T06:47:24;51.57;;;27.50;;
3293;SDS011;1659;51.470;6.770;2023-09-12T06:49:50;48.33;;;27.17;;
3293;SDS011;1659;51.470;6.770;2023-09-12T06:52:17;55.60;;;30.70;;
3293;SDS011;1659;51.470;6.770;2023-09-12T06:54:44;57.13;;;32.10;;
3293;SDS011;1659;51.470;6.770;2023-09-12T06:57:11;53.37;;;29.07;;
3293;SDS011;1659;51.470;6.770;2023-09-12T06:59:37;50.73;;;27.27;;
3293;SDS011;1659;51.470;6.770;2023-09-12T07:02:04;53.57;;;29.33;;
3293;SDS011;1659;51.470;6.770;2023-09-12T07:04:31;66.50;;;31.93;;
3293;SDS011;1659;51.470;6.770;2023-09-12T07:06:57;66.47;;;31.00;;
3293;SDS011;1659;51.470;6.770;2023-09-12T07:09:24;61.07;;;29.17;;
3293;SDS011;1659;51.470;6.770;2023-09-12T07:11:52;55.10;;;29.67;;
3293;SDS011;1659;51.470;6.770;2023-09-12T07:14:18;55.00;;;29.53;;
3293;SDS011;1659;51.470;6.770;2023-09-12T07:16:45;50.20;;;28.57;;
3293;SDS011;1659;51.470;6.770;2023-09-12T07:19:12;47.97;;;24.97;;
3293;SDS011;1659;51.470;6.770;2023-09-12T07:21:38;51.83;;;24.17;;
3293;SDS011;1659;51.470;6.770;2023-09-12T07:24:05;42.57;;;22.40;;
3293;SDS011;1659;51.470;6.770;2023-09-12T07:26:32;44.77;;;22.20;;
3293;SDS011;1659;51.470;6.770;2023-09-12T07:29:00;38.00;;;21.10;;
3293;SDS011;1659;51.470;6.770;2023-09-12T07:31:29;29.47;;;17.20;;
3293;SDS011;1659;51.470;6.770;2023-09-12T07:33:56;27.93;;;17.73;;
3293;SDS011;1659;51.470;6.770;2023-09-12T07:36:22;32.77;;;16.27;;
3293;SDS011;1659;51.470;6.770;2023-09-12T07:38:49;23.63;;;13.40;;
3293;SDS011;1659;51.470;6.770;2023-09-12T07:41:16;23.57;;;14.03;;
3293;SDS011;1659;51.470;6.770;2023-09-12T07:43:42;22.30;;;13.37;;
3293;SDS011;1659;51.470;6.770;2023-09-12T07:46:10;22.80;;;14.90;;
3293;SDS011;1659;51.470;6.770;2023-09-12T07:48:37;30.43;;;15.53;;
3293;SDS011;1659;51.470;6.770;2023-09-12T07:51:10;31.13;;;15.57;;
3293;SDS011;1659;51.470;6.770;2023-09-12T07:53:38;43.60;;;22.33;;
3293;SDS011;1659;51.470;6.770;2023-09-12T07:56:04;45.73;;;23.73;;
3293;SDS011;1659;51.470;6.770;2023-09-12T07:58:31;54.43;;;29.00;;
3293;SDS011;1659;51.470;6.770;2023-09-12T08:00:57;52.60;;;26.40;;
3293;SDS011;1659;51.470;6.770;2023-09-12T08:03:25;55.30;;;30.37;;
3293;SDS011;1659;51.470;6.770;2023-09-12T08:05:55;59.33;;;31.53;;
3293;SDS011;1659;51.470;6.770;2023-09-12T08:08:22;55.00;;;28.40;;
3293;SDS011;1659;51.470;6.770;2023-09-12T08:10:49;54.27;;;29.90;;
3293;SDS011;1659;51.470;6.770;2023-09-12T08:13:15;55.17;;;29.73;;
3293;SDS011;1659;51.470;6.770;2023-09-12T08:15:42;60.37;;;32.80;;
3293;SDS011;1659;51.470;6.770;2023-09-12T08:18:09;61.53;;;34.13;;
3293;SDS011;1659;51.470;6.770;2023-09-12T08:20:37;67.00;;;33.07;;
3293;SDS011;1659;51.470;6.770;2023-09-12T08:23:04;55.93;;;31.40;;
3293;SDS011;1659;51.470;6.770;2023-09-12T08:25:30;60.93;;;32.50;;
3293;SDS011;1659;51.470;6.770;2023-09-12T08:27:57;57.20;;;31.43;;
3293;SDS011;1659;51.470;6.770;2023-09-12T08:30:23;59.87;;;35.67;;
3293;SDS011;1659;51.470;6.770;2023-09-12T08:32:50;53.47;;;31.83;;
3293;SDS011;1659;51.470;6.770;2023-09-12T08:35:17;55.80;;;34.10;;
3293;SDS011;1659;51.470;6.770;2023-09-12T08:37:45;53.20;;;32.87;;
3293;SDS011;1659;51.470;6.770;2023-09-12T08:40:12;48.70;;;31.20;;
3293;SDS011;1659;51.470;6.770;2023-09-12T08:42:39;43.70;;;30.13;;
3293;SDS011;1659;51.470;6.770;2023-09-12T08:45:11;34.10;;;25.80;;
3293;SDS011;1659;51.470;6.770;2023-09-12T08:47:40;40.03;;;25.47;;
3293;SDS011;1659;51.470;6.770;2023-09-12T08:50:08;32.80;;;23.13;;
3293;SDS011;1659;51.470;6.770;2023-09-12T08:52:38;31.83;;;21.43;;
3293;SDS011;1659;51.470;6.770;2023-09-12T08:55:06;24.10;;;18.90;;
3293;SDS011;1659;51.470;6.770;2023-09-12T08:57:33;23.70;;;18.00;;
3293;SDS011;1659;51.470;6.770;2023-09-12T09:00:02;24.70;;;18.63;;
3293;SDS011;1659;51.470;6.770;2023-09-12T09:02:31;23.80;;;18.17;;
3293;SDS011;1659;51.470;6.770;2023-09-12T09:04:58;25.20;;;17.63;;
3293;SDS011;1659;51.470;6.770;2023-09-12T09:07:27;19.70;;;15.77;;
3293;SDS011;1659;51.470;6.770;2023-09-12T09:09:54;22.73;;;16.37;;
3293;SDS011;1659;51.470;6.770;2023-09-12T09:12:23;18.13;;;15.50;;
3293;SDS011;1659;51.470;6.770;2023-09-12T09:14:50;20.17;;;15.73;;
3293;SDS011;1659;51.470;6.770;2023-09-12T09:17:16;27.20;;;16.03;;
3293;SDS011;1659;51.470;6.770;2023-09-12T09:19:43;18.07;;;13.57;;
3293;SDS011;1659;51.470;6.770;2023-09-12T09:22:11;18.00;;;14.40;;
3293;SDS011;1659;51.470;6.770;2023-09-12T09:24:37;18.00;;;15.20;;
3293;SDS011;1659;51.470;6.770;2023-09-12T09:27:04;15.80;;;13.40;;
3293;SDS011;1659;51.470;6.770;2023-09-12T09:29:32;17.83;;;14.80;;
3293;SDS011;1659;51.470;6.770;2023-09-12T09:32:16;18.70;;;14.20;;
3293;SDS011;1659;51.470;6.770;2023-09-12T09:34:44;15.70;;;13.27;;
3293;SDS011;1659;51.470;6.770;2023-09-12T09:37:10;15.93;;;13.70;;
3293;SDS011;1659;51.470;6.770;2023-09-12T09:39:37;20.53;;;14.73;;
3293;SDS011;1659;51.470;6.770;2023-09-12T09:42:04;14.00;;;11.93;;
3293;SDS011;1659;51.470;6.770;2023-09-12T09:44:38;15.83;;;13.33;;
3293;SDS011;1659;51.470;6.770;2023-09-12T09:47:04;20.10;;;14.13;;
3293;SDS011;1659;51.470;6.770;2023-09-12T09:49:31;20.70;;;13.57;;
3293;SDS011;1659;51.470;6.770;2023-09-12T09:51:59;12.40;;;10.20;;
3293;SDS011;1659;51.470;6.770;2023-09-12T09:54:29;16.90;;;10.40;;
3293;SDS011;1659;51.470;6.770;2023-09-12T09:56:56;11.00;;;9.83;;
3293;SDS011;1659;51.470;6.770;2023-09-12T09:59:23;17.77;;;9.30;;
3293;SDS011;1659;51.470;6.770;2023-09-12T10:01:54;13.30;;;9.20;;
3293;SDS011;1659;51.470;6.770;2023-09-12T10:04:22;14.63;;;8.57;;
3293;SDS011;1659;51.470;6.770;2023-09-12T10:06:49;10.27;;;7.53;;
3293;SDS011;1659;51.470;6.770;2023-09-12T10:09:16;7.37;;;6.53;;
3293;SDS011;1659;51.470;6.770;2023-09-12T10:11:46;12.53;;;8.43;;
3293;SDS011;1659;51.470;6.770;2023-09-12T10:14:15;16.50;;;12.20;;
3293;SDS011;1659;51.470;6.770;2023-09-12T10:16:45;10.87;;;8.00;;
3293;SDS011;1659;51.470;6.770;2023-09-12T10:19:15;13.63;;;9.80;;
3293;SDS011;1659;51.470;6.770;2023-09-12T10:21:46;15.10;;;9.90;;
3293;SDS011;1659;51.470;6.770;2023-09-12T10:24:14;7.30;;;6.43;;
3293;SDS011;1659;51.470;6.770;2023-09-12T10:26:41;10.60;;;7.73;;
3293;SDS011;1659;51.470;6.770;2023-09-12T10:29:10;8.20;;;7.40;;
3293;SDS011;1659;51.470;6.770;2023-09-12T10:31:39;9.90;;;7.97;;
3293;SDS011;1659;51.470;6.770;2023-09-12T10:34:05;10.50;;;8.27;;
3293;SDS011;1659;51.470;6.770;2023-09-12T10:36:36;7.80;;;6.70;;
3293;SDS011;1659;51.470;6.770;2023-09-12T10:39:04;7.33;;;6.60;;
3293;SDS011;1659;51.470;6.770;2023-09-12T10:41:32;6.83;;;6.13;;
3293;SDS011;1659;51.470;6.770;2023-09-12T10:44:02;8.27;;;7.37;;
3293;SDS011;1659;51.470;6.770;2023-09-12T10:46:34;9.77;;;6.90;;
3293;SDS011;1659;51.470;6.770;2023-09-12T10:49:02;6.40;;;5.80;;
3293;SDS011;1659;51.470;6.770;2023-09-12T10:51:32;7.10;;;6.40;;
3293;SDS011;1659;51.470;6.770;2023-09-12T10:54:00;9.33;;;6.47;;
3293;SDS011;1659;51.470;6.770;2023-09-12T10:56:26;8.17;;;6.87;;
3293;SDS011;1659;51.470;6.770;2023-09-12T10:59:09;6.20;;;5.70;;
3293;SDS011;1659;51.470;6.770;2023-09-12T11:01:40;6.80;;;6.03;;
3293;SDS011;1659;51.470;6.770;2023-09-12T11:06:59;6.53;;;5.90;;
3293;SDS011;1659;51.470;6.770;2023-09-12T11:09:28;6.90;;;6.00;;
3293;SDS011;1659;51.470;6.770;2023-09-12T11:11:55;7.60;;;6.90;;
3293;SDS011;1659;51.470;6.770;2023-09-12T11:14:23;6.70;;;6.10;;
3293;SDS011;1659;51.470;6.770;2023-09-12T11:19:52;6.93;;;6.33;;
3293;SDS011;1659;51.470;6.770;2023-09-12T11:22:22;7.00;;;6.40;;
3293;SDS011;1659;51.470;6.770;2023-09-12T11:24:54;7.07;;;6.47;;
3293;SDS011;1659;51.470;6.770;2023-09-12T11:27:21;8.93;;;6.17;;
3293;SDS011;1659;51.470;6.770;2023-09-12T11:29:48;6.90;;;6.30;;
3293;SDS011;1659;51.470;6.770;2023-09-12T11:32:25;8.20;;;7.50;;
3293;SDS011;1659;51.470;6.770;2023-09-12T11:34:53;8.97;;;7.43;;
3293;SDS011;1659;51.470;6.770;2023-09-12T11:37:24;6.83;;;6.13;;
3293;SDS011;1659;51.470;6.770;2023-09-12T11:39:51;8.03;;;6.90;;
3293;SDS011;1659;51.470;6.770;2023-09-12T11:42:20;8.57;;;6.27;;
3293;SDS011;1659;51.470;6.770;2023-09-12T11:44:50;6.10;;;5.50;;
3293;SDS011;1659;51.470;6.770;2023-09-12T11:47:17;7.20;;;5.93;;
3293;SDS011;1659;51.470;6.770;2023-09-12T11:49:45;7.10;;;5.63;;
3293;SDS011;1659;51.470;6.770;2023-09-12T11:52:12;5.70;;;5.20;;
3293;SDS011;1659;51.470;6.770;2023-09-12T11:54:41;7.90;;;6.77;;
3293;SDS011;1659;51.470;6.770;2023-09-12T11:57:09;6.97;;;6.37;;
3293;SDS011;1659;51.470;6.770;2023-09-12T11:59:39;7.10;;;6.40;;
3293;SDS011;1659;51.470;6.770;2023-09-12T12:02:08;7.13;;;5.77;;
3293;SDS011;1659;51.470;6.770;2023-09-12T12:04:35;5.87;;;5.37;;
3293;SDS011;1659;51.470;6.770;2023-09-12T12:07:03;10.20;;;6.07;;
3293;SDS011;1659;51.470;6.770;2023-09-12T12:09:32;7.20;;;5.73;;
3293;SDS011;1659;51.470;6.770;2023-09-12T12:12:03;5.97;;;5.47;;
3293;SDS011;1659;51.470;6.770;2023-09-12T12:14:33;6.30;;;5.70;;
3293;SDS011;1659;51.470;6.770;2023-09-12T12:17:06;5.67;;;5.27;;
3293;SDS011;1659;51.470;6.770;2023-09-12T12:19:34;6.70;;;6.07;;
3293;SDS011;1659;51.470;6.770;2023-09-12T12:22:02;6.43;;;5.57;;
3293;SDS011;1659;51.470;6.770;2023-09-12T12:24:36;6.40;;;5.30;;
3293;SDS011;1659;51.470;6.770;2023-09-12T12:27:03;7.80;;;5.93;;
3293;SDS011;1659;51.470;6.770;2023-09-12T12:29:30;6.33;;;5.57;;
3293;SDS011;1659;51.470;6.770;2023-09-12T12:31:59;6.37;;;5.67;;
3293;SDS011;1659;51.470;6.770;2023-09-12T12:34:27;7.40;;;6.70;;
3293;SDS011;1659;51.470;6.770;2023-09-12T12:36:54;6.80;;;6.27;;
3293;SDS011;1659;51.470;6.770;2023-09-12T12:39:21;8.83;;;8.03;;
3293;SDS011;1659;51.470;6.770;2023-09-12T12:41:49;12.67;;;11.47;;
3293;SDS011;1659;51.470;6.770;2023-09-12T12:44:19;14.90;;;13.40;;
3293;SDS011;1659;51.470;6.770;2023-09-12T12:46:48;14.57;;;13.03;;
3293;SDS011;1659;51.470;6.770;2023-09-12T12:49:15;11.30;;;10.20;;
3293;SDS011;1659;51.470;6.770;2023-09-12T12:51:44;10.70;;;9.63;;
3293;SDS011;1659;51.470;6.770;2023-09-12T12:54:11;9.87;;;8.97;;
3293;SDS011;1659;51.470;6.770;2023-09-12T12:56:37;11.07;;;9.97;;
3293;SDS011;1659;51.470;6.770;2023-09-12T12:59:05;13.80;;;11.63;;
3293;SDS011;1659;51.470;6.770;2023-09-12T13:01:33;15.50;;;13.40;;
3293;SDS011;1659;51.470;6.770;2023-09-12T13:04:00;15.07;;;12.50;;
3293;SDS011;1659;51.470;6.770;2023-09-12T13:06:27;16.70;;;12.97;;
3293;SDS011;1659;51.470;6.770;2023-09-12T13:08:57;16.70;;;13.70;;
3293;SDS011;1659;51.470;6.770;2023-09-12T13:11:26;13.37;;;11.70;;
3293;SDS011;1659;51.470;6.770;2023-09-12T13:13:53;18.33;;;11.90;;
3293;SDS011;1659;51.470;6.770;2023-09-12T13:16:19;13.87;;;9.57;;
3293;SDS011;1659;51.470;6.770;2023-09-12T13:18:46;9.83;;;8.40;;
3293;SDS011;1659;51.470;6.770;2023-09-12T13:21:13;9.67;;;8.67;;
3293;SDS011;1659;51.470;6.770;2023-09-12T13:23:39;7.97;;;7.27;;
3293;SDS011;1659;51.470;6.770;2023-09-12T13:26:08;13.40;;;8.90;;
3293;SDS011;1659;51.470;6.770;2023-09-12T13:28:35;9.57;;;8.57;;
3293;SDS011;1659;51.470;6.770;2023-09-12T13:31:03;9.57;;;8.70;;
3293;SDS011;1659;51.470;6.770;2023-09-12T13:33:29;9.83;;;8.83;;
3293;SDS011;1659;51.470;6.770;2023-09-12T13:35:56;10.23;;;7.70;;
3293;SDS011;1659;51.470;6.770;2023-09-12T13:38:23;9.67;;;8.67;;
3293;SDS011;1659;51.470;6.770;2023-09-12T13:40:49;12.40;;;8.43;;
3293;SDS011;1659;51.470;6.770;2023-09-12T13:43:17;9.40;;;8.30;;
3293;SDS011;1659;51.470;6.770;2023-09-12T13:45:45;9.63;;;8.43;;
3293;SDS011;1659;51.470;6.770;2023-09-12T13:48:11;9.43;;;8.30;;
3293;SDS011;1659;51.470;6.770;2023-09-12T13:50:38;9.07;;;8.27;;
3293;SDS011;1659;51.470;6.770;2023-09-12T13:53:05;11.30;;;9.30;;
3293;SDS011;1659;51.470;6.770;2023-09-12T13:55:32;11.30;;;9.00;;
3293;SDS011;1659;51.470;6.770;2023-09-12T13:58:00;8.80;;;8.10;;
3293;SDS011;1659;51.470;6.770;2023-09-12T14:00:29;9.57;;;8.67;;
3293;SDS011;1659;51.470;6.770;2023-09-12T14:02:56;9.87;;;8.90;;
3293;SDS011;1659;51.470;6.770;2023-09-12T14:05:22;10.50;;;9.60;;
3293;SDS011;1659;51.470;6.770;2023-09-12T14:07:49;12.70;;;11.53;;
3293;SDS011;1659;51.470;6.770;2023-09-12T14:10:16;14.73;;;13.20;;
3293;SDS011;1659;51.470;6.770;2023-09-12T14:12:43;14.43;;;11.70;;
3293;SDS011;1659;51.470;6.770;2023-09-12T14:15:10;13.80;;;12.50;;
3293;SDS011;1659;51.470;6.770;2023-09-12T14:17:40;12.23;;;10.87;;
3293;SDS011;1659;51.470;6.770;2023-09-12T14:20:07;13.47;;;11.30;;
3293;SDS011;1659;51.470;6.770;2023-09-12T14:22:34;13.67;;;10.07;;
3293;SDS011;1659;51.470;6.770;2023-09-12T14:25:01;12.60;;;11.30;;
3293;SDS011;1659;51.470;6.770;2023-09-12T14:27:27;13.13;;;11.87;;
3293;SDS011;1659;51.470;6.770;2023-09-12T14:29:54;18.37;;;12.10;;
3293;SDS011;1659;51.470;6.770;2023-09-12T14:32:21;12.33;;;10.37;;
3293;SDS011;1659;51.470;6.770;2023-09-12T14:34:48;10.80;;;9.70;;
3293;SDS011;1659;51.470;6.770;2023-09-12T14:37:15;10.13;;;9.13;;
3293;SDS011;1659;51.470;6.770;2023-09-12T14:39:41;12.83;;;9.83;;
3293;SDS011;1659;51.470;6.770;2023-09-12T14:42:08;9.57;;;8.60;;
3293;SDS011;1659;51.470;6.770;2023-09-12T14:44:37;10.13;;;9.17;;
3293;SDS011;1659;51.470;6.770;2023-09-12T14:47:04;11.07;;;10.00;;
3293;SDS011;1659;51.470;6.770;2023-09-12T14:49:30;8.83;;;7.93;;
3293;SDS011;1659;51.470;6.770;2023-09-12T14:51:58;11.50;;;8.10;;
3293;SDS011;1659;51.470;6.770;2023-09-12T14:54:25;12.97;;;8.77;;
3293;SDS011;1659;51.470;6.770;2023-09-12T14:56:51;9.80;;;8.70;;
3293;SDS011;1659;51.470;6.770;2023-09-12T14:59:18;11.67;;;9.27;;
3293;SDS011;1659;51.470;6.770;2023-09-12T15:01:45;8.30;;;7.50;;
3293;SDS011;1659;51.470;6.770;2023-09-12T15:04:12;13.33;;;8.90;;